Time;durP1;ratioP1;P1;durP2;ratioP2;P2;SDS_P1;SDS_P2;PMS_P1;PMS_P2;Temp;Humidity;BMP_temperature;BMP_pressure;BME280_temperature;BME280_humidity;BME280_pressure;Samples;Min_cycle;Max_cycle;Signal;HPM_P1;HPM_P2
2021/11/02 00:01:56;;;;;;;;;;;;;;;29.48;68.24;101095.72;5018406;28;71341;-37
2021/11/02 00:04:26;;;;;;;;;;;;;;;29.42;68.84;101105.50;5002153;28;65717;-37
2021/11/02 00:06:57;;;;;;;;;;;;;;;29.38;68.78;101102.34;5019626;28;69746;-36
2021/11/02 00:09:28;;;;;;;;;;;;;;;29.31;69.15;101098.81;5019193;28;67077;-36
2021/11/02 00:12:00;;;;;;;;;;;;;;;29.24;70.03;101106.06;5017216;28;70021;-37
2021/11/02 00:14:30;;;;;;;;;;;;;;;29.21;70.89;101103.78;5015325;28;66200;-36
2021/11/02 00:17:22;;;;;;;;;;;;;;;29.17;70.00;101107.94;5025219;28;70156;-36
2021/11/02 00:19:57;;;;;;;;;;;;;;;29.17;69.79;101113.34;5019967;28;65464;-36
2021/11/02 00:22:28;;;;;;;;;;;;;;;29.13;69.39;101112.88;5020746;28;70369;-37
2021/11/02 00:25:05;;;;;;;;;;;;;;;29.12;70.10;101126.63;5021433;28;66648;-36
2021/11/02 00:27:42;;;;;;;;;;;;;;;29.05;70.82;101123.03;5008158;28;69760;-37
2021/11/02 00:30:23;;;;;;;;;;;;;;;29.03;69.73;101128.66;5016325;28;66113;-36
2021/11/02 00:33:09;;;;;;;;;;;;;;;29.04;69.97;101137.59;5009053;28;70120;-36
2021/11/02 00:35:57;;;;;;;;;;;;;;;28.92;71.45;101143.53;5022886;28;66317;-36
2021/11/02 00:38:58;;;;;;;;;;;;;;;28.68;72.48;101146.72;5030258;28;70351;-36
2021/11/02 00:41:41;;;;;;;;;;;;;;;28.66;72.63;101146.09;5012564;28;65700;-36
2021/11/02 00:44:27;;;;;;;;;;;;;;;28.74;71.70;101141.34;5020677;28;69314;-36
2021/11/02 00:46:59;;;;;;;;;;;;;;;28.75;72.21;101144.88;4979445;28;65369;-36
2021/11/02 00:49:48;;;;;;;;;;;;;;;28.72;72.01;101142.59;5006238;28;69831;-36
2021/11/02 00:52:34;;;;;;;;;;;;;;;28.77;71.59;101140.13;5010996;28;65471;-37
2021/11/02 00:55:44;;;;;;;;;;;;;;;28.84;70.23;101141.00;5003766;28;69775;-36
2021/11/02 00:58:25;;;;;;;;;;;;;;;28.79;71.18;101154.25;5020326;28;66173;-40
2021/11/02 01:01:18;;;;;;;;;;;;;;;28.87;70.69;101156.81;5016812;28;70237;-37
2021/11/02 01:04:07;;;;;;;;;;;;;;;28.87;70.65;101156.81;4994602;28;66183;-36
2021/11/02 01:07:02;;;;;;;;;;;;;;;28.93;70.31;101147.88;5025273;28;70343;-37
2021/11/02 01:10:01;;;;;;;;;;;;;;;28.98;69.74;101151.88;5000375;28;66105;-40
2021/11/02 01:13:02;;;;;;;;;;;;;;;29.02;70.16;101150.41;5012237;28;69854;-36
2021/11/02 01:16:25;;;;;;;;;;;;;;;29.13;69.37;101163.38;5015055;28;66605;-36
2021/11/02 01:19:31;;;;;;;;;;;;;;;29.10;69.41;101163.78;5010206;28;69386;-36
2021/11/02 01:22:37;;;;;;;;;;;;;;;29.19;68.22;101165.28;5014510;28;66311;-36
2021/11/02 01:26:04;;;;;;;;;;;;;;;29.23;68.16;101177.34;5014810;28;69506;-38
2021/11/02 01:29:29;;;;;;;;;;;;;;;29.31;67.75;101169.06;5015512;28;67021;-36
2021/11/02 01:32:35;;;;;;;;;;;;;;;29.37;67.16;101168.25;5018904;28;69997;-36
2021/11/02 01:35:29;;;;;;;;;;;;;;;29.31;67.66;101179.88;5018775;28;65456;-36
2021/11/02 01:38:12;;;;;;;;;;;;;;;29.34;67.51;101173.25;4976780;28;69609;-36
2021/11/02 01:40:56;;;;;;;;;;;;;;;29.39;68.86;101182.41;5020083;28;66419;-37
2021/11/02 01:44:03;;;;;;;;;;;;;;;29.46;67.81;101174.31;5011594;28;68971;-36
2021/11/02 01:46:50;;;;;;;;;;;;;;;29.50;67.67;101169.31;4996366;28;66795;-38
2021/11/02 01:49:39;;;;;;;;;;;;;;;29.57;68.09;101175.59;5002617;28;70117;-37
2021/11/02 01:52:26;;;;;;;;;;;;;;;29.56;68.08;101176.59;5014981;28;66382;-37
2021/11/02 01:55:20;;;;;;;;;;;;;;;29.64;68.60;101184.56;4973761;28;69703;-37
2021/11/02 01:58:00;;;;;;;;;;;;;;;29.68;68.04;101185.81;5002574;28;65058;-36
2021/11/02 02:00:37;;;;;;;;;;;;;;;29.70;68.41;101183.75;5006372;28;70090;-38
2021/11/02 02:03:41;;;;;;;;;;;;;;;29.77;68.16;101175.66;5013657;28;66768;-37
2021/11/02 02:06:44;;;;;;;;;;;;;;;29.78;68.35;101172.75;4979759;28;69338;-37
2021/11/02 02:09:43;;;;;;;;;;;;;;;29.82;67.69;101167.75;4996133;28;68578;-37
2021/11/02 02:12:24;;;;;;;;;;;;;;;29.88;67.79;101174.22;5010712;28;70014;-37
2021/11/02 02:15:41;;;;;;;;;;;;;;;29.92;68.57;101178.16;5011843;28;66323;-37
2021/11/02 02:18:39;;;;;;;;;;;;;;;29.96;67.72;101171.31;5003768;28;69910;-37
2021/11/02 02:21:50;;;;;;;;;;;;;;;29.98;67.76;101175.47;5008739;28;65617;-37
2021/11/02 02:25:11;;;;;;;;;;;;;;;30.01;67.85;101174.22;5009348;28;70106;-36
2021/11/02 02:28:10;;;;;;;;;;;;;;;30.04;67.91;101169.22;5015416;28;66302;-36
2021/11/02 02:31:18;;;;;;;;;;;;;;;30.08;67.82;101158.81;5003857;28;69630;-37
2021/11/02 02:33:58;;;;;;;;;;;;;;;30.11;67.83;101152.97;5009690;28;66550;-37
2021/11/02 02:36:52;;;;;;;;;;;;;;;30.06;67.54;101139.25;4994509;28;69862;-37
2021/11/02 02:39:35;;;;;;;;;;;;;;;30.20;67.29;101153.59;5005082;28;65669;-37
2021/11/02 02:42:17;;;;;;;;;;;;;;;30.23;67.40;101151.34;5004091;28;70842;-37
2021/11/02 02:45:15;;;;;;;;;;;;;;;30.27;66.63;101149.88;5009767;28;66299;-37
2021/11/02 02:47:55;;;;;;;;;;;;;;;30.29;66.89;101146.97;5010671;28;69025;-38
2021/11/02 02:50:43;;;;;;;;;;;;;;;30.30;66.23;101143.22;5005457;28;66554;-36
2021/11/02 02:53:19;;;;;;;;;;;;;;;30.35;66.13;101139.88;4984073;28;69895;-37
2021/11/02 02:56:06;;;;;;;;;;;;;;;30.36;65.99;101136.97;5002524;28;66425;-37
2021/11/02 02:59:03;;;;;;;;;;;;;;;30.39;65.93;101130.28;4995106;28;70234;-37
2021/11/02 03:01:48;;;;;;;;;;;;;;;30.44;65.74;101130.50;4981855;28;64932;-37
2021/11/02 03:04:34;;;;;;;;;;;;;;;30.46;65.59;101129.25;5012602;28;69928;-37
2021/11/02 03:07:18;;;;;;;;;;;;;;;30.46;65.55;101125.72;4999943;28;66497;-37
2021/11/02 03:09:58;;;;;;;;;;;;;;;30.50;65.78;101126.94;4996574;28;69451;-39
2021/11/02 03:12:34;;;;;;;;;;;;;;;30.51;65.25;101115.09;5018977;28;65793;-37
2021/11/02 03:18:00;;;;;;;;;;;;;;;30.57;65.20;101119.66;5012000;28;66863;-37
2021/11/02 03:49:20;;;;;;;;;;;;;;;30.92;64.22;101070.56;5001861;28;70540;-37
2021/11/02 03:54:30;;;;;;;;;;;;;;;30.95;63.17;101072.84;5007336;28;66525;-37
2021/11/02 03:54:51;;;;;;;;;;;;;;;30.97;63.25;101068.06;4994278;28;69909;-37
2021/11/02 04:23:31;;;;;;;;;;;;;;;31.32;60.48;101046.78;5009962;28;69983;-36
2021/11/02 04:29:42;;;;;;;;;;;;;;;31.42;60.35;101019.22;5007301;28;69400;-35
2021/11/02 04:46:23;;;;;;;;;;;;;;;31.60;60.22;100978.59;5007860;28;70058;-35
2021/11/02 05:56:09;;;;;;;;;;;;;;;32.13;60.80;100884.16;4995635;28;69523;-34
2021/11/02 06:01:49;;;;;;;;;;;;;;;32.15;60.71;100882.03;5006850;28;70576;-36
2021/11/02 06:04:51;;;;;;;;;;;;;;;32.19;60.70;100881.34;5008202;28;66961;-35
2021/11/02 06:07:40;;;;;;;;;;;;;;;32.20;60.78;100869.41;5009378;28;69345;-36
2021/11/02 06:30:26;;;;;;;;;;;;;;;32.39;60.33;100821.34;5001883;28;70179;-37
2021/11/02 06:56:18;;;;;;;;;;;;;;;32.64;59.42;100804.06;5007870;28;66522;-35
2021/11/02 06:59:15;;;;;;;;;;;;;;;32.68;58.93;100806.09;5010135;28;70088;-35
2021/11/02 07:18:58;;;;;;;;;;;;;;;32.97;58.38;100768.16;5011507;28;66487;-35
2021/11/02 07:21:41;;;;;;;;;;;;;;;33.01;58.23;100773.97;5012301;28;70197;-35
2021/11/02 07:24:22;;;;;;;;;;;;;;;33.05;57.75;100770.56;5013664;28;66348;-36
2021/11/02 08:46:23;;;;;;;;;;;;;;;34.37;54.89;100736.13;5009499;28;66662;-37
2021/11/02 08:49:15;;;;;;;;;;;;;;;34.43;54.81;100746.03;5008291;28;69101;-37
2021/11/02 08:51:55;;;;;;;;;;;;;;;34.49;54.96;100744.22;5001980;28;66188;-36
2021/11/02 08:54:33;;;;;;;;;;;;;;;34.53;54.87;100742.66;5008405;28;69375;-37
2021/11/02 08:57:04;;;;;;;;;;;;;;;34.56;54.85;100744.91;5010511;28;66482;-37
2021/11/02 08:59:35;;;;;;;;;;;;;;;34.59;54.85;100741.69;5008026;28;69714;-36
2021/11/02 09:02:11;;;;;;;;;;;;;;;34.62;54.65;100743.91;5007882;28;66486;-37
2021/11/02 09:04:45;;;;;;;;;;;;;;;34.67;54.63;100745.91;5006844;28;70029;-36
2021/11/02 09:07:20;;;;;;;;;;;;;;;34.68;54.82;100742.91;5005682;28;66402;-36
2021/11/02 09:09:51;;;;;;;;;;;;;;;34.69;55.06;100743.75;4998860;28;69104;-36
2021/11/02 09:12:27;;;;;;;;;;;;;;;34.69;54.99;100739.13;5010605;28;66194;-36
2021/11/02 09:15:01;;;;;;;;;;;;;;;34.74;54.40;100759.34;5008582;28;70535;-36
2021/11/02 09:17:33;;;;;;;;;;;;;;;34.71;52.32;100749.75;5008368;28;66583;-37
2021/11/02 09:20:04;;;;;;;;;;;;;;;34.72;52.54;100758.78;5007924;28;69323;-37
2021/11/02 09:22:34;;;;;;;;;;;;;;;34.69;52.67;100755.47;5006746;28;66873;-36
2021/11/02 09:25:05;;;;;;;;;;;;;;;34.73;52.21;100765.88;5004477;28;69978;-36
2021/11/02 09:27:36;;;;;;;;;;;;;;;34.74;52.84;100762.06;5013457;28;65320;-36
2021/11/02 09:30:08;;;;;;;;;;;;;;;34.76;51.98;100770.81;4999678;28;70336;-37
2021/11/02 09:32:49;;;;;;;;;;;;;;;34.74;51.21;100778.41;5007459;28;66446;-36
2021/11/02 09:35:21;;;;;;;;;;;;;;;34.78;52.38;100771.41;5000823;28;69284;-37
2021/11/02 09:37:58;;;;;;;;;;;;;;;34.75;52.43;100775.44;5011866;28;65953;-37
2021/11/02 09:40:29;;;;;;;;;;;;;;;34.75;52.60;100780.06;5013521;28;70799;-37
2021/11/02 09:43:12;;;;;;;;;;;;;;;34.73;51.69;100784.94;5005552;28;66924;-37
2021/11/02 09:45:50;;;;;;;;;;;;;;;34.68;52.04;100789.22;5008536;28;70398;-37
2021/11/02 09:48:26;;;;;;;;;;;;;;;34.73;53.39;100798.56;5010784;28;66597;-36
2021/11/02 09:51:11;;;;;;;;;;;;;;;34.72;53.19;100796.94;5009014;28;70296;-37
2021/11/02 09:53:46;;;;;;;;;;;;;;;34.68;53.67;100794.66;5012650;28;66307;-36
2021/11/02 09:56:44;;;;;;;;;;;;;;;34.67;53.70;100794.94;5008848;28;70600;-37
2021/11/02 09:59:36;;;;;;;;;;;;;;;34.78;53.30;100801.38;5008167;28;66243;-36
2021/11/02 10:02:19;;;;;;;;;;;;;;;34.63;54.39;100802.78;5002924;28;70195;-37
2021/11/02 10:05:31;;;;;;;;;;;;;;;34.54;54.63;100809.66;5006316;28;66059;-36
2021/11/02 10:08:21;;;;;;;;;;;;;;;34.40;55.39;100802.91;5007565;28;70100;-37
2021/11/02 10:11:11;;;;;;;;;;;;;;;34.36;55.79;100799.84;5007744;28;67148;-37
2021/11/02 10:13:51;;;;;;;;;;;;;;;34.28;56.24;100802.97;5005825;28;70363;-36
2021/11/02 10:16:39;;;;;;;;;;;;;;;34.26;56.26;100805.94;4988559;28;66701;-36
2021/11/02 10:19:40;;;;;;;;;;;;;;;34.21;56.87;100819.47;4976971;28;70203;-37
2021/11/02 10:22:29;;;;;;;;;;;;;;;34.15;57.82;100823.16;4995508;28;65313;-36
2021/11/02 10:25:05;;;;;;;;;;;;;;;34.11;57.59;100816.56;5002287;28;69616;-35
2021/11/02 10:27:55;;;;;;;;;;;;;;;34.09;57.54;100821.41;5004797;28;66648;-36
2021/11/02 10:30:45;;;;;;;;;;;;;;;34.03;58.04;100822.38;4987501;28;70012;-36
2021/11/02 10:33:20;;;;;;;;;;;;;;;34.02;58.08;100831.59;5005559;28;67487;-35
2021/11/02 10:36:02;;;;;;;;;;;;;;;34.03;58.21;100827.81;4991324;28;70089;-35
2021/11/02 10:38:47;;;;;;;;;;;;;;;34.02;58.77;100823.44;5010923;28;66478;-36
2021/11/02 10:41:23;;;;;;;;;;;;;;;33.99;58.77;100837.50;5021652;28;70556;-38
2021/11/02 10:44:03;;;;;;;;;;;;;;;33.97;59.05;100831.50;4991072;28;66195;-37
2021/11/02 10:46:35;;;;;;;;;;;;;;;33.97;58.69;100836.94;4978696;28;69365;-37
2021/11/02 10:49:15;;;;;;;;;;;;;;;33.95;59.18;100842.63;5006358;28;66491;-37
2021/11/02 10:51:55;;;;;;;;;;;;;;;33.92;59.39;100837.66;4986603;28;70317;-36
2021/11/02 10:54:25;;;;;;;;;;;;;;;33.90;59.40;100842.50;5006706;28;65596;-36
2021/11/02 10:57:02;;;;;;;;;;;;;;;33.84;59.98;100848.09;4993314;28;69142;-35
2021/11/02 10:59:33;;;;;;;;;;;;;;;33.83;59.95;100844.56;4976485;28;66330;-36
2021/11/02 11:02:04;;;;;;;;;;;;;;;33.85;59.61;100844.31;5003872;28;69507;-36
2021/11/02 11:04:39;;;;;;;;;;;;;;;33.83;59.96;100849.19;5007199;28;65789;-35
2021/11/02 11:07:11;;;;;;;;;;;;;;;33.77;60.03;100853.69;5002920;28;69866;-36
2021/11/02 11:09:43;;;;;;;;;;;;;;;33.74;60.13;100849.56;5004398;28;67020;-36
2021/11/02 11:12:19;;;;;;;;;;;;;;;33.75;60.09;100856.66;4997005;28;70198;-36
2021/11/02 11:14:52;;;;;;;;;;;;;;;33.71;60.27;100869.09;5013432;28;66713;-36
2021/11/02 11:17:27;;;;;;;;;;;;;;;33.67;60.27;100867.91;5010143;28;70396;-37
2021/11/02 11:19:58;;;;;;;;;;;;;;;33.65;60.48;100878.19;5013660;28;66885;-36
2021/11/02 11:22:31;;;;;;;;;;;;;;;33.63;60.45;100877.63;5016551;28;70501;-36
2021/11/02 11:25:09;;;;;;;;;;;;;;;33.65;60.34;100875.47;5010403;28;66674;-37
2021/11/02 11:27:45;;;;;;;;;;;;;;;33.64;60.46;100889.31;5013999;28;70297;-36
2021/11/02 11:30:15;;;;;;;;;;;;;;;33.63;60.30;100899.38;5016721;28;65702;-36
2021/11/02 11:32:48;;;;;;;;;;;;;;;33.59;60.46;100895.47;5009835;28;70026;-37
2021/11/02 11:35:19;;;;;;;;;;;;;;;33.57;60.82;100901.16;4995759;28;65711;-37
2021/11/02 11:37:52;;;;;;;;;;;;;;;33.52;59.53;100905.63;5011479;28;69272;-37
2021/11/02 11:40:24;;;;;;;;;;;;;;;33.42;58.62;100908.13;4993800;28;66095;-36
2021/11/02 11:42:56;;;;;;;;;;;;;;;33.34;57.58;100909.28;5009731;28;69767;-36
2021/11/02 11:45:28;;;;;;;;;;;;;;;33.17;57.93;100916.50;5008411;28;66803;-37
2021/11/02 11:48:24;;;;;;;;;;;;;;;33.09;56.78;100914.94;4985566;28;70458;-34
2021/11/02 11:51:04;;;;;;;;;;;;;;;32.92;55.87;100931.91;4974610;28;64480;-36
2021/11/02 11:53:37;;;;;;;;;;;;;;;32.82;55.16;100931.66;5009004;28;70094;-37
2021/11/02 11:56:13;;;;;;;;;;;;;;;32.70;54.46;100928.06;4990888;28;66265;-35
2021/11/02 11:58:48;;;;;;;;;;;;;;;32.63;53.72;100938.22;4994174;28;69192;-37
2021/11/02 12:01:25;;;;;;;;;;;;;;;32.55;53.12;100935.81;5012971;28;65815;-37
2021/11/02 12:04:09;;;;;;;;;;;;;;;32.41;53.04;100946.81;5009082;28;70281;-37
2021/11/02 12:06:48;;;;;;;;;;;;;;;32.33;52.50;100944.44;4976749;28;65519;-37
2021/11/02 12:09:22;;;;;;;;;;;;;;;32.23;52.12;100950.41;4987832;28;70149;-35
2021/11/02 12:12:01;;;;;;;;;;;;;;;32.20;51.95;100950.00;4985113;28;65465;-36
2021/11/02 12:14:33;;;;;;;;;;;;;;;32.15;51.40;100958.00;4994128;28;70535;-36
2021/11/02 12:17:05;;;;;;;;;;;;;;;32.10;51.15;100955.16;5013587;28;66408;-36
2021/11/02 12:19:40;;;;;;;;;;;;;;;32.09;50.72;100964.34;5011211;28;70781;-40
2021/11/02 12:22:13;;;;;;;;;;;;;;;32.02;50.84;100980.72;4997775;28;65608;-36
2021/11/02 12:24:47;;;;;;;;;;;;;;;31.98;49.95;100985.78;5008582;28;69966;-36
2021/11/02 12:27:19;;;;;;;;;;;;;;;31.94;50.73;100992.69;5009180;28;66738;-36
2021/11/02 12:29:50;;;;;;;;;;;;;;;31.93;50.86;100992.91;5007216;28;70599;-36
2021/11/02 12:32:23;;;;;;;;;;;;;;;31.91;50.72;100995.00;5000412;28;65706;-36
2021/11/02 12:35:05;;;;;;;;;;;;;;;31.88;49.67;101006.31;5009769;28;69940;-36
2021/11/02 12:37:49;;;;;;;;;;;;;;;31.77;49.70;101010.56;5009824;28;66095;-36
2021/11/02 12:40:21;;;;;;;;;;;;;;;31.71;49.20;101006.06;4996155;28;69956;-37
2021/11/02 12:43:26;;;;;;;;;;;;;;;31.68;48.57;101011.88;5008861;28;66283;-36
2021/11/02 12:45:59;;;;;;;;;;;;;;;31.63;48.82;101019.91;5019072;28;70012;-36
2021/11/02 12:48:32;;;;;;;;;;;;;;;31.56;48.64;101017.22;5027350;28;66444;-36
2021/11/02 12:51:22;;;;;;;;;;;;;;;31.51;48.99;101023.31;4991239;28;63664;-35
2021/11/02 12:53:57;;;;;;;;;;;;;;;31.50;49.27;101020.81;5005400;28;65857;-35
2021/11/02 12:56:33;;;;;;;;;;;;;;;31.47;49.75;101022.09;5008834;28;70157;-36
2021/11/02 12:59:18;;;;;;;;;;;;;;;31.43;49.60;101031.72;5003722;28;66715;-34
2021/11/02 13:01:52;;;;;;;;;;;;;;;31.33;49.55;101026.75;5007866;28;69136;-35
2021/11/02 13:04:36;;;;;;;;;;;;;;;31.41;49.78;101039.25;5016711;28;65740;-36
2021/11/02 13:07:33;;;;;;;;;;;;;;;31.40;49.21;101048.44;4997514;28;69909;-35
2021/11/02 13:10:39;;;;;;;;;;;;;;;31.33;50.77;101047.63;5004292;28;66227;-36
2021/11/02 13:13:22;;;;;;;;;;;;;;;31.35;50.46;101056.38;5006846;28;70031;-35
2021/11/02 13:15:57;;;;;;;;;;;;;;;31.34;50.90;101065.53;5012463;28;66602;-36
2021/11/02 13:18:32;;;;;;;;;;;;;;;31.33;51.31;101069.28;5006261;28;70511;-37
2021/11/02 13:21:29;;;;;;;;;;;;;;;31.38;51.34;101067.63;4990516;28;66385;-36
2021/11/02 13:24:24;;;;;;;;;;;;;;;31.34;51.30;101060.09;4992712;28;70419;-37
2021/11/02 13:27:16;;;;;;;;;;;;;;;31.33;50.55;101063.88;4993188;28;65376;-36
2021/11/02 13:30:31;;;;;;;;;;;;;;;31.28;49.98;101066.41;4994070;28;68482;-38
2021/11/02 13:33:19;;;;;;;;;;;;;;;31.31;49.82;101065.97;5009996;28;66978;-38
2021/11/02 13:36:04;;;;;;;;;;;;;;;31.27;49.81;101076.41;5007571;28;70283;-37
2021/11/02 13:38:38;;;;;;;;;;;;;;;31.27;50.03;101075.59;5005917;28;66375;-36
2021/11/02 13:41:20;;;;;;;;;;;;;;;31.26;49.31;101080.19;5003194;28;69777;-36
2021/11/02 13:44:08;;;;;;;;;;;;;;;31.29;50.99;101078.94;5009460;28;66002;-36
2021/11/02 13:46:44;;;;;;;;;;;;;;;31.25;50.96;101080.41;5008328;28;69899;-36
2021/11/02 13:49:21;;;;;;;;;;;;;;;31.22;52.00;101080.84;5006524;28;65475;-36
2021/11/02 13:51:55;;;;;;;;;;;;;;;31.13;51.42;101075.66;5005731;28;69924;-36
2021/11/02 13:54:30;;;;;;;;;;;;;;;31.20;51.14;101093.75;5006387;28;66665;-35
2021/11/02 13:57:03;;;;;;;;;;;;;;;31.20;50.63;101101.91;5011077;28;70192;-37
2021/11/02 13:59:46;;;;;;;;;;;;;;;31.16;50.88;101101.50;5013608;28;65702;-36
2021/11/02 14:02:23;;;;;;;;;;;;;;;31.12;50.77;101095.69;5009239;28;69998;-38
2021/11/02 14:04:57;;;;;;;;;;;;;;;31.10;50.26;101102.38;5000821;28;65973;-37
2021/11/02 14:07:30;;;;;;;;;;;;;;;31.11;49.89;101104.03;5009944;28;70805;-36
2021/11/02 14:10:08;;;;;;;;;;;;;;;31.12;50.00;101106.53;5008882;28;65241;-36
2021/11/02 14:12:55;;;;;;;;;;;;;;;31.07;49.37;101108.22;5007292;28;68494;-36
2021/11/02 14:15:32;;;;;;;;;;;;;;;31.03;49.75;101113.22;5004347;28;66325;-36
2021/11/02 14:18:19;;;;;;;;;;;;;;;31.02;49.32;101113.47;5009079;28;70866;-35
2021/11/02 14:20:56;;;;;;;;;;;;;;;30.96;49.90;101111.63;5005064;28;66819;-35
2021/11/02 14:23:48;;;;;;;;;;;;;;;30.97;49.37;101107.84;5008767;28;70250;-36
2021/11/02 14:26:29;;;;;;;;;;;;;;;30.92;48.78;101120.19;4997688;28;67794;-35
2021/11/02 14:29:07;;;;;;;;;;;;;;;30.93;49.15;101121.00;5012737;28;70147;-34
2021/11/02 14:31:52;;;;;;;;;;;;;;;30.92;48.27;101122.03;5001369;28;65864;-35
2021/11/02 14:34:27;;;;;;;;;;;;;;;30.87;48.40;101122.69;5009288;28;70127;-35
2021/11/02 14:37:11;;;;;;;;;;;;;;;30.88;48.57;101127.06;5008455;28;66595;-35
2021/11/02 14:40:02;;;;;;;;;;;;;;;30.86;48.43;101122.91;5011568;28;70014;-35
2021/11/02 14:42:54;;;;;;;;;;;;;;;30.85;48.06;101129.38;4992620;28;66235;-37
2021/11/02 14:45:40;;;;;;;;;;;;;;;30.82;47.92;101127.94;5002459;28;71376;-35
2021/11/02 14:48:34;;;;;;;;;;;;;;;30.82;48.14;101121.69;5010930;28;65510;-36
2021/11/02 14:51:21;;;;;;;;;;;;;;;30.79;47.56;101122.09;5013081;28;71029;-35
2021/11/02 14:54:19;;;;;;;;;;;;;;;30.72;47.60;101122.91;5010684;28;65717;-35
2021/11/02 14:57:20;;;;;;;;;;;;;;;30.72;47.23;101120.22;5015338;28;70056;-35
2021/11/02 15:00:04;;;;;;;;;;;;;;;30.70;47.19;101114.19;5009548;28;66126;-36
2021/11/02 15:02:42;;;;;;;;;;;;;;;30.57;47.61;101097.97;5015768;28;70296;-36
2021/11/02 15:05:25;;;;;;;;;;;;;;;30.65;46.84;101111.28;5017885;28;66053;-36
2021/11/02 15:08:06;;;;;;;;;;;;;;;30.63;47.58;101112.53;5015054;28;70737;-37
2021/11/02 15:10:54;;;;;;;;;;;;;;;30.61;47.32;101106.50;5015959;28;66315;-35
2021/11/02 15:13:26;;;;;;;;;;;;;;;30.61;46.84;101111.91;5016755;28;69916;-36
2021/11/02 15:16:00;;;;;;;;;;;;;;;30.57;46.72;101114.22;5014778;28;66184;-37
2021/11/02 15:18:37;;;;;;;;;;;;;;;30.59;46.67;101109.44;5004207;28;69945;-35
2021/11/02 15:21:08;;;;;;;;;;;;;;;30.57;46.51;101119.66;5027346;28;66104;-34
2021/11/02 15:23:48;;;;;;;;;;;;;;;30.53;46.43;101112.16;5016499;28;70270;-36
2021/11/02 15:26:43;;;;;;;;;;;;;;;30.48;46.43;101113.63;5016113;28;66405;-37
2021/11/02 15:29:16;;;;;;;;;;;;;;;30.53;46.19;101110.28;5009507;28;71461;-35
2021/11/02 15:32:06;;;;;;;;;;;;;;;30.48;46.74;101104.69;5007373;28;67629;-36
2021/11/02 15:34:45;;;;;;;;;;;;;;;30.37;46.80;101094.47;5013500;28;69168;-36
2021/11/02 15:37:36;;;;;;;;;;;;;;;30.43;46.51;101104.50;5013677;28;66428;-37
2021/11/02 15:40:07;;;;;;;;;;;;;;;30.41;46.76;101109.28;5011134;28;69259;-36
2021/11/02 15:42:56;;;;;;;;;;;;;;;30.37;46.78;101108.00;5012418;28;66166;-36
2021/11/02 15:45:38;;;;;;;;;;;;;;;30.42;46.56;101100.09;5002355;28;69526;-36
2021/11/02 15:48:26;;;;;;;;;;;;;;;30.39;46.62;101100.53;5013984;28;66898;-37
2021/11/02 15:50:59;;;;;;;;;;;;;;;30.39;46.06;101095.09;5012687;28;70430;-36
2021/11/02 15:53:29;;;;;;;;;;;;;;;30.37;46.40;101086.34;5011397;28;65205;-36
2021/11/02 15:56:21;;;;;;;;;;;;;;;30.34;45.63;101076.81;4989481;28;70202;-36
2021/11/02 15:59:02;;;;;;;;;;;;;;;30.31;46.25;101081.81;4993240;28;66706;-35
2021/11/02 16:01:32;;;;;;;;;;;;;;;30.28;45.99;101083.91;5009752;28;70443;-34
2021/11/02 16:04:08;;;;;;;;;;;;;;;30.27;46.26;101087.63;5015170;28;66248;-36
2021/11/02 16:07:03;;;;;;;;;;;;;;;30.28;46.38;101081.19;5077181;22;69263;-38
2021/11/02 16:09:49;;;;;;;;;;;;;;;30.25;45.84;101081.59;5002082;28;63818;-37
2021/11/02 16:12:26;;;;;;;;;;;;;;;30.22;46.50;101073.91;5012337;28;70677;-37
2021/11/02 16:15:18;;;;;;;;;;;;;;;30.20;46.04;101070.56;5011630;28;66418;-37
2021/11/02 16:18:00;;;;;;;;;;;;;;;30.15;45.90;101067.66;4997084;28;70298;-38
2021/11/02 16:20:35;;;;;;;;;;;;;;;30.20;46.28;101069.72;5013537;28;66490;-36
2021/11/02 16:23:12;;;;;;;;;;;;;;;30.17;45.84;101071.00;5015324;28;70278;-37
2021/11/02 16:25:59;;;;;;;;;;;;;;;30.19;46.08;101055.38;5015442;28;66077;-36
2021/11/02 16:28:43;;;;;;;;;;;;;;;30.20;46.25;101056.19;5024798;28;68958;-37
2021/11/02 16:31:24;;;;;;;;;;;;;;;29.78;46.16;101061.88;5009629;28;66094;-36
2021/11/02 16:33:56;;;;;;;;;;;;;;;29.65;46.46;101055.66;5014686;28;69476;-37
2021/11/02 16:36:41;;;;;;;;;;;;;;;29.55;46.97;101056.00;5014437;28;66630;-38
2021/11/02 16:39:25;;;;;;;;;;;;;;;29.49;47.42;101048.75;5010553;28;71137;-37
2021/11/02 16:42:00;;;;;;;;;;;;;;;29.45;47.41;101048.31;5015854;28;66887;-37
2021/11/02 16:44:35;;;;;;;;;;;;;;;29.39;46.99;101052.69;5011468;28;69957;-38
2021/11/02 16:47:22;;;;;;;;;;;;;;;29.36;46.97;101055.81;5012720;28;67150;-37
2021/11/02 16:50:08;;;;;;;;;;;;;;;29.32;47.04;101049.13;5016083;28;68575;-39
2021/11/02 16:52:42;;;;;;;;;;;;;;;29.33;47.57;101042.69;5015556;28;66945;-37
2021/11/02 16:55:15;;;;;;;;;;;;;;;29.31;47.33;101042.06;5014018;28;70115;-36
2021/11/02 16:58:10;;;;;;;;;;;;;;;29.28;47.51;101037.09;5011595;28;65946;-36
2021/11/02 17:00:42;;;;;;;;;;;;;;;29.30;47.00;101036.88;5016946;28;69284;-37
2021/11/02 17:03:15;;;;;;;;;;;;;;;29.25;46.68;101033.94;4999396;28;66349;-37
2021/11/02 17:05:51;;;;;;;;;;;;;;;29.24;47.07;101035.81;4991910;28;70086;-37
2021/11/02 17:08:23;;;;;;;;;;;;;;;29.21;47.08;101028.13;5010344;28;66384;-36
2021/11/02 17:10:59;;;;;;;;;;;;;;;29.17;46.64;101030.41;5006839;28;68838;-36
2021/11/02 17:13:35;;;;;;;;;;;;;;;29.16;47.21;101025.22;5004921;28;66632;-37
2021/11/02 17:16:19;;;;;;;;;;;;;;;29.11;46.90;101012.34;5005119;28;68960;-37
2021/11/02 17:18:57;;;;;;;;;;;;;;;29.12;46.54;101013.16;5005535;28;66038;-37
2021/11/02 17:21:30;;;;;;;;;;;;;;;29.09;46.91;101009.00;5005143;28;69999;-38
2021/11/02 17:24:05;;;;;;;;;;;;;;;29.08;46.93;101006.50;5012491;28;67091;-36
2021/11/02 17:26:39;;;;;;;;;;;;;;;29.06;46.64;101003.16;5001722;28;69103;-37
2021/11/02 17:29:17;;;;;;;;;;;;;;;29.04;46.89;100994.44;5000765;28;66575;-37
2021/11/02 17:31:52;;;;;;;;;;;;;;;29.02;46.67;100991.91;5008429;28;69868;-37
2021/11/02 17:34:23;;;;;;;;;;;;;;;28.99;46.87;100978.00;4994525;28;64857;-36
2021/11/02 17:36:58;;;;;;;;;;;;;;;29.01;46.79;100978.63;5005565;28;70265;-36
2021/11/02 17:39:37;;;;;;;;;;;;;;;28.99;46.78;100965.31;4997571;28;66101;-36
2021/11/02 17:42:22;;;;;;;;;;;;;;;28.96;46.76;100961.16;5007320;28;69762;-36
2021/11/02 17:44:54;;;;;;;;;;;;;;;28.96;46.66;100961.16;5011242;28;65750;-37
2021/11/02 17:47:25;;;;;;;;;;;;;;;28.93;46.72;100955.34;5001468;28;70685;-36
2021/11/02 17:49:58;;;;;;;;;;;;;;;28.93;46.89;100950.75;4994550;28;66352;-36
2021/11/02 17:52:31;;;;;;;;;;;;;;;28.92;46.95;100945.59;4994951;28;70655;-36
2021/11/02 17:55:03;;;;;;;;;;;;;;;28.90;46.80;100945.78;4992685;28;67273;-37
2021/11/02 17:57:47;;;;;;;;;;;;;;;28.85;46.97;100934.75;5004488;28;70177;-37
2021/11/02 18:00:23;;;;;;;;;;;;;;;28.87;46.81;100940.78;4999858;28;66839;-37
2021/11/02 18:02:56;;;;;;;;;;;;;;;28.86;46.99;100932.88;4997186;28;69296;-37
2021/11/02 18:05:29;;;;;;;;;;;;;;;28.84;47.16;100935.81;4999245;28;66819;-38
2021/11/02 18:08:01;;;;;;;;;;;;;;;28.83;47.55;100941.41;4998365;28;69150;-37
2021/11/02 18:10:38;;;;;;;;;;;;;;;28.81;47.62;100936.22;5004891;28;65515;-37
2021/11/02 18:13:10;;;;;;;;;;;;;;;28.81;47.03;100925.41;4996792;28;70374;-36
2021/11/02 18:15:45;;;;;;;;;;;;;;;28.82;47.43;100926.25;5005318;28;65591;-37
2021/11/02 18:18:17;;;;;;;;;;;;;;;28.81;46.89;100920.03;5004149;28;70426;-36
2021/11/02 18:21:12;;;;;;;;;;;;;;;28.79;47.23;100915.84;5007110;28;66437;-38
2021/11/02 18:23:45;;;;;;;;;;;;;;;28.76;46.86;100903.59;5008098;28;70417;-38
2021/11/02 18:26:18;;;;;;;;;;;;;;;28.74;47.16;100909.19;5008079;28;66260;-37
2021/11/02 18:28:50;;;;;;;;;;;;;;;28.73;47.07;100895.91;5005357;28;70762;-36
2021/11/02 18:31:25;;;;;;;;;;;;;;;28.72;47.00;100896.94;5012079;28;66700;-38
2021/11/02 18:34:04;;;;;;;;;;;;;;;28.71;46.95;100895.28;5010138;28;69714;-36
2021/11/02 18:36:35;;;;;;;;;;;;;;;28.66;46.73;100884.25;5012631;28;66855;-37